Time;durP1;ratioP1;P1;durP2;ratioP2;P2;SDS_P1;SDS_P2;PMS_P1;PMS_P2;Temp;Humidity;BMP_temperature;BMP_pressure;BME280_temperature;BME280_humidity;BME280_pressure;Samples;Min_cycle;Max_cycle;Signal;HPM_P1;HPM_P2
2023/06/28 00:00:12;;;;;;;;;;;;;;;25.38;44.38;100796.09;2294919;77;50306;-75
2023/06/28 00:03:14;;;;;;;;;;;;;;;25.38;44.46;100797.45;2316802;76;50869;-75
2023/06/28 00:06:15;;;;;;;;;;;;;;;25.37;44.57;100792.56;2294351;77;52267;-75
2023/06/28 00:09:17;;;;;;;;;;;;;;;25.37;44.58;100786.33;2271249;77;52788;-75
2023/06/28 00:12:20;;;;;;;;;;;;;;;25.35;44.48;100781.12;2279970;77;51820;-75
2023/06/28 00:15:21;;;;;;;;;;;;;;;25.35;44.56;100786.53;2244160;77;50358;-75
2023/06/28 00:18:25;;;;;;;;;;;;;;;25.35;44.57;100788.42;2233767;79;50864;-75
2023/06/28 00:21:27;;;;;;;;;;;;;;;25.35;44.57;100790.59;2255436;77;22541;-75
2023/06/28 00:24:28;;;;;;;;;;;;;;;25.35;44.54;100793.84;2256277;78;50763;-76
2023/06/28 00:27:30;;;;;;;;;;;;;;;25.36;44.73;100796.34;2255993;78;50423;-75
2023/06/28 00:30:32;;;;;;;;;;;;;;;25.35;44.61;100794.66;2206626;80;50712;-75
2023/06/28 00:33:34;;;;;;;;;;;;;;;25.36;44.60;100795.52;2222487;80;51596;-76
2023/06/28 00:36:36;;;;;;;;;;;;;;;25.35;44.71;100800.08;2222461;80;50717;-76
2023/06/28 00:39:37;;;;;;;;;;;;;;;25.35;44.79;100797.38;2222754;80;50370;-76
2023/06/28 00:42:39;;;;;;;;;;;;;;;25.34;44.87;100801.14;2268113;77;50466;-76
2023/06/28 00:45:40;;;;;;;;;;;;;;;25.34;44.97;100800.32;2251798;77;50087;-76
2023/06/28 00:48:42;;;;;;;;;;;;;;;25.34;45.01;100797.08;2234124;78;50504;-75
2023/06/28 00:51:44;;;;;;;;;;;;;;;25.34;44.95;100800.32;2257203;78;51511;-77
2023/06/28 00:54:46;;;;;;;;;;;;;;;25.32;44.82;100796.47;2257166;77;51379;-75
2023/06/28 00:57:47;;;;;;;;;;;;;;;25.32;44.96;100797.83;2233813;79;49603;-76
2023/06/28 01:00:49;;;;;;;;;;;;;;;25.32;45.15;100799.18;2257294;79;50486;-76
2023/06/28 01:03:53;;;;;;;;;;;;;;;25.32;45.08;100799.18;2257116;79;50788;-76
2023/06/28 01:06:54;;;;;;;;;;;;;;;25.32;45.21;100801.89;2257144;78;22981;-76
2023/06/28 01:09:59;;;;;;;;;;;;;;;25.32;45.31;100803.24;2233826;78;51043;-76
2023/06/28 01:13:01;;;;;;;;;;;;;;;25.31;45.20;100806.20;2257569;77;51561;-76
2023/06/28 01:16:02;;;;;;;;;;;;;;;25.30;45.13;100807.23;2255876;79;50667;-76
2023/06/28 01:19:04;;;;;;;;;;;;;;;25.30;45.14;100808.05;2209482;79;51809;-76
2023/06/28 01:22:06;;;;;;;;;;;;;;;25.30;45.01;100804.52;2210143;78;52535;-76
2023/06/28 01:25:09;;;;;;;;;;;;;;;25.29;44.89;100806.41;2257269;77;50803;-75
2023/06/28 01:28:11;;;;;;;;;;;;;;;25.27;44.82;100797.67;2234241;78;50761;-76
2023/06/28 01:31:13;;;;;;;;;;;;;;;25.27;44.95;100803.09;2257152;78;50441;-76
2023/06/28 01:34:14;;;;;;;;;;;;;;;25.26;44.75;100801.44;2233855;78;51791;-76
2023/06/28 01:37:17;;;;;;;;;;;;;;;25.26;44.79;100809.56;2233453;79;50891;-76
2023/06/28 01:40:20;;;;;;;;;;;;;;;25.26;44.69;100810.09;2257174;79;51690;-76
2023/06/28 01:43:21;;;;;;;;;;;;;;;25.26;44.66;100808.22;2262471;77;51650;-74
2023/06/28 01:46:23;;;;;;;;;;;;;;;25.25;44.70;100810.60;2292600;77;50997;-75
2023/06/28 01:49:25;;;;;;;;;;;;;;;25.25;44.70;100809.25;2315376;76;51630;-76
2023/06/28 01:52:27;;;;;;;;;;;;;;;25.26;44.61;100813.63;2315395;77;51559;-75
2023/06/28 01:55:29;;;;;;;;;;;;;;;25.24;44.60;100817.08;2315462;77;50331;-76
2023/06/28 01:58:30;;;;;;;;;;;;;;;25.25;44.59;100810.60;2268059;77;50999;-76
2023/06/28 02:01:32;;;;;;;;;;;;;;;25.24;44.47;100807.60;2315358;77;51515;-76
2023/06/28 02:04:33;;;;;;;;;;;;;;;25.25;44.36;100809.78;2293296;77;50418;-76
2023/06/28 02:07:35;;;;;;;;;;;;;;;25.24;44.31;100800.83;2315248;77;50394;-76
2023/06/28 02:10:37;;;;;;;;;;;;;;;25.24;44.32;100800.83;2293403;76;51577;-75
2023/06/28 02:13:38;;;;;;;;;;;;;;;25.23;44.32;100795.12;2271415;77;50663;-75
2023/06/28 02:16:41;;;;;;;;;;;;;;;25.22;44.27;100791.27;2315185;77;51589;-76
2023/06/28 02:19:43;;;;;;;;;;;;;;;25.22;44.30;100792.09;2315424;77;50371;-75
2023/06/28 02:22:44;;;;;;;;;;;;;;;25.21;44.33;100797.22;2268470;77;51077;-75
2023/06/28 02:25:46;;;;;;;;;;;;;;;25.22;44.23;100797.52;2308371;76;50407;-75
2023/06/28 02:28:48;;;;;;;;;;;;;;;25.22;44.21;100800.75;2297670;77;50469;-75
2023/06/28 02:31:50;;;;;;;;;;;;;;;25.21;44.22;100794.52;2251699;77;52799;-75
2023/06/28 02:34:51;;;;;;;;;;;;;;;25.20;44.18;100788.28;2276270;77;52604;-76
2023/06/28 02:37:53;;;;;;;;;;;;;;;25.19;44.17;100789.84;2297688;77;50354;-75
2023/06/28 02:40:55;;;;;;;;;;;;;;;25.20;44.11;100784.22;2297877;77;51466;-75
2023/06/28 02:43:56;;;;;;;;;;;;;;;25.19;44.12;100786.60;2211502;78;51406;-75
2023/06/28 02:46:58;;;;;;;;;;;;;;;25.19;44.17;100789.84;2230889;79;49704;-75
2023/06/28 02:50:05;;;;;;;;;;;;;;;25.19;44.16;100796.61;2254311;79;50276;-75
2023/06/28 02:53:03;;;;;;;;;;;;;;;25.18;44.22;100793.61;2253820;77;22395;-76
2023/06/28 02:56:04;;;;;;;;;;;;;;;25.18;44.20;100785.48;2231626;79;50760;-75
2023/06/28 02:59:06;;;;;;;;;;;;;;;25.17;44.19;100786.52;2207378;79;53485;-75
2023/06/28 03:02:08;;;;;;;;;;;;;;;25.17;44.07;100787.34;2231386;79;53628;-75
2023/06/28 03:05:10;;;;;;;;;;;;;;;25.15;44.02;100788.09;2254206;77;50742;-76
2023/06/28 03:08:12;;;;;;;;;;;;;;;25.15;44.04;100784.52;2254122;79;50785;-76
2023/06/28 03:11:13;;;;;;;;;;;;;;;25.14;44.12;100799.13;2207507;79;52498;-75
2023/06/28 03:14:16;;;;;;;;;;;;;;;25.14;44.12;100808.61;2232881;78;51501;-75
2023/06/28 03:17:21;;;;;;;;;;;;;;;25.14;44.21;100814.84;2254042;79;50884;-75
2023/06/28 03:20:20;;;;;;;;;;;;;;;25.12;44.23;100818.83;2230446;79;22770;-75
2023/06/28 03:23:22;;;;;;;;;;;;;;;25.11;44.20;100806.35;2231563;79;50472;-75
2023/06/28 03:26:23;;;;;;;;;;;;;;;25.12;44.12;100815.59;2254235;79;50451;-76
2023/06/28 03:29:25;;;;;;;;;;;;;;;25.12;44.06;100818.83;2254253;78;50454;-75
2023/06/28 03:32:27;;;;;;;;;;;;;;;25.11;44.12;100807.70;2231095;79;50842;-76
2023/06/28 03:35:28;;;;;;;;;;;;;;;25.10;44.04;100804.67;2231487;79;51500;-75
2023/06/28 03:38:30;;;;;;;;;;;;;;;25.09;43.93;100805.20;2254097;79;50674;-75
2023/06/28 03:41:31;;;;;;;;;;;;;;;25.09;43.90;100803.03;2231475;79;51421;-76
2023/06/28 03:44:33;;;;;;;;;;;;;;;25.07;43.91;100807.84;2275523;77;51462;-75
2023/06/28 03:47:34;;;;;;;;;;;;;;;25.07;43.95;100806.48;2231215;79;51281;-75
2023/06/28 03:50:36;;;;;;;;;;;;;;;25.08;43.81;100808.16;2254250;79;50422;-74
2023/06/28 03:53:38;;;;;;;;;;;;;;;25.06;44.01;100799.42;2254277;79;50377;-75
2023/06/28 03:56:39;;;;;;;;;;;;;;;25.07;43.95;100803.77;2231494;79;51508;-75
2023/06/28 03:59:41;;;;;;;;;;;;;;;25.05;44.05;100814.84;2207258;79;52664;-76
2023/06/28 04:02:43;;;;;;;;;;;;;;;25.05;43.98;100809.42;2254329;78;50418;-75
2023/06/28 04:05:44;;;;;;;;;;;;;;;25.04;43.99;100813.70;2231297;79;50147;-75
2023/06/28 04:08:46;;;;;;;;;;;;;;;25.04;44.03;100805.58;2231077;79;50355;-76
2023/06/28 04:11:48;;;;;;;;;;;;;;;25.04;44.02;100802.87;2232148;78;51582;-76
2023/06/28 04:14:50;;;;;;;;;;;;;;;25.03;44.04;100797.98;2252795;78;50473;-76
2023/06/28 04:17:51;;;;;;;;;;;;;;;25.03;43.95;100801.23;2254088;79;51572;-76
2023/06/28 04:20:53;;;;;;;;;;;;;;;25.04;43.98;100806.94;2254246;79;50633;-76
2023/06/28 04:23:54;;;;;;;;;;;;;;;25.04;43.98;100816.41;2231134;77;51212;-76
2023/06/28 04:27:00;;;;;;;;;;;;;;;25.03;43.96;100813.41;2230920;79;50366;-75
2023/06/28 04:29:59;;;;;;;;;;;;;;;25.02;43.98;100820.67;2231227;79;22482;-75
2023/06/28 04:33:04;;;;;;;;;;;;;;;25.03;43.99;100830.48;2254224;77;51673;-75
2023/06/28 04:36:04;;;;;;;;;;;;;;;25.04;43.91;100840.77;2231764;79;22490;-75
2023/06/28 04:39:07;;;;;;;;;;;;;;;25.03;43.99;100841.84;2230985;79;50282;-75
2023/06/28 04:42:08;;;;;;;;;;;;;;;25.02;44.05;100848.28;2255298;78;51608;-75
2023/06/28 04:45:11;;;;;;;;;;;;;;;25.02;44.05;100850.45;2288217;75;51517;-75
2023/06/28 04:48:12;;;;;;;;;;;;;;;25.02;44.05;100849.10;2292151;77;51464;-75
2023/06/28 04:51:14;;;;;;;;;;;;;;;25.01;44.14;100849.34;2293077;77;51528;-75
2023/06/28 04:54:16;;;;;;;;;;;;;;;25.02;44.15;100850.45;2293103;77;51613;-76
2023/06/28 04:57:20;;;;;;;;;;;;;;;25.02;44.14;100840.16;2293210;75;50380;-76
2023/06/28 05:00:21;;;;;;;;;;;;;;;25.02;44.17;100838.27;2315597;76;22396;-75
2023/06/28 05:03:27;;;;;;;;;;;;;;;25.02;44.02;100826.63;2315581;76;50638;-75
2023/06/28 05:06:29;;;;;;;;;;;;;;;25.01;43.90;100830.39;2315578;77;51619;-76
2023/06/28 05:09:35;;;;;;;;;;;;;;;25.01;43.47;100832.57;2315828;75;49782;-75
2023/06/28 05:12:36;;;;;;;;;;;;;;;24.99;43.31;100833.31;2287956;76;51787;-77
2023/06/28 05:15:38;;;;;;;;;;;;;;;24.98;43.48;100847.37;2256481;79;50250;-78
2023/06/28 05:18:39;;;;;;;;;;;;;;;24.98;43.22;100847.37;2256965;78;50465;-76
2023/06/28 05:21:41;;;;;;;;;;;;;;;24.95;43.44;100853.23;2233707;79;50408;-74
2023/06/28 05:24:43;;;;;;;;;;;;;;;24.95;43.50;100846.47;2209878;79;51029;-78
2023/06/28 05:27:44;;;;;;;;;;;;;;;24.95;43.52;100849.18;2256981;79;50364;-76
2023/06/28 05:30:46;;;;;;;;;;;;;;;24.98;43.59;100850.61;2257180;78;50300;-75
2023/06/28 05:33:47;;;;;;;;;;;;;;;24.97;43.49;100852.50;2257586;77;50803;-78
2023/06/28 05:36:49;;;;;;;;;;;;;;;24.95;43.53;100843.77;2210235;79;52554;-77
2023/06/28 05:39:50;;;;;;;;;;;;;;;24.96;43.36;100848.11;2210313;79;51608;-77
2023/06/28 05:42:53;;;;;;;;;;;;;;;24.97;43.41;100853.00;2233469;78;51581;-79
2023/06/28 05:45:55;;;;;;;;;;;;;;;24.96;43.41;100852.17;2256813;79;50835;-77
2023/06/28 05:48:58;;;;;;;;;;;;;;;24.97;43.39;100855.70;2229992;77;51739;-77
2023/06/28 05:52:00;;;;;;;;;;;;;;;25.04;43.30;100857.84;2269984;77;51611;-76
2023/06/28 05:55:01;;;;;;;;;;;;;;;25.11;43.10;100861.86;2254373;79;50767;-75
2023/06/28 05:58:03;;;;;;;;;;;;;;;25.18;42.85;100854.02;2230631;77;52397;-77
2023/06/28 06:01:06;;;;;;;;;;;;;;;25.28;43.05;100853.52;2207697;79;52646;-76
2023/06/28 06:04:08;;;;;;;;;;;;;;;25.24;43.09;100844.70;2231439;79;50518;-75
2023/06/28 06:07:09;;;;;;;;;;;;;;;25.20;43.13;100851.06;2256993;78;50311;-76
2023/06/28 06:10:11;;;;;;;;;;;;;;;25.15;43.25;100851.72;2258927;78;50672;-75
2023/06/28 06:13:13;;;;;;;;;;;;;;;25.13;43.28;100850.28;2210468;79;51349;-75
2023/06/28 06:16:14;;;;;;;;;;;;;;;25.10;43.24;100858.83;2255871;79;50303;-78
2023/06/28 06:19:16;;;;;;;;;;;;;;;25.10;43.25;100861.53;2257364;79;50455;-77
2023/06/28 06:22:17;;;;;;;;;;;;;;;25.10;43.25;100858.83;2257272;78;51580;-77
2023/06/28 06:25:19;;;;;;;;;;;;;;;25.15;43.05;100864.41;2210160;79;51658;-76
2023/06/28 06:28:21;;;;;;;;;;;;;;;25.20;42.85;100856.48;2233980;79;51586;-77
2023/06/28 06:31:22;;;;;;;;;;;;;;;25.20;43.01;100851.06;2257259;77;51490;-77
2023/06/28 06:34:24;;;;;;;;;;;;;;;25.28;42.89;100845.39;2257349;77;52644;-76
2023/06/28 06:37:26;;;;;;;;;;;;;;;25.33;42.74;100864.51;2257143;79;51549;-77
2023/06/28 06:40:27;;;;;;;;;;;;;;;25.37;42.63;100857.57;2234327;78;51557;-77
2023/06/28 06:43:29;;;;;;;;;;;;;;;25.35;42.54;100851.55;2256130;78;51545;-76
2023/06/28 06:46:30;;;;;;;;;;;;;;;25.43;42.36;100843.66;2233650;79;51524;-77
2023/06/28 06:49:32;;;;;;;;;;;;;;;25.49;42.16;100852.79;2257206;78;50287;-76
2023/06/28 06:52:34;;;;;;;;;;;;;;;25.52;41.91;100852.34;2210185;79;51251;-75
2023/06/28 06:55:35;;;;;;;;;;;;;;;25.54;41.80;100859.19;2257197;79;51618;-77
2023/06/28 06:58:37;;;;;;;;;;;;;;;25.57;41.61;100860.63;2233545;78;50289;-77
2023/06/28 07:01:38;;;;;;;;;;;;;;;25.59;41.48;100854.45;2257402;79;50235;-77
2023/06/28 07:04:40;;;;;;;;;;;;;;;25.61;41.31;100857.24;2234100;79;51730;-76
2023/06/28 07:07:42;;;;;;;;;;;;;;;25.62;41.21;100860.24;2234118;78;50667;-77
2023/06/28 07:10:44;;;;;;;;;;;;;;;25.60;41.22;100859.63;2234126;79;50786;-76
2023/06/28 07:13:45;;;;;;;;;;;;;;;25.59;41.09;100866.66;2276805;77;50668;-76
2023/06/28 07:16:47;;;;;;;;;;;;;;;25.57;41.07;100868.75;2200001;80;52313;-77
2023/06/28 07:19:48;;;;;;;;;;;;;;;25.53;41.08;100872.42;2199937;80;51656;-77
2023/06/28 07:22:50;;;;;;;;;;;;;;;25.53;41.10;100875.13;2200505;80;51507;-78
2023/06/28 07:25:52;;;;;;;;;;;;;;;25.53;40.92;100877.84;2222926;79;51620;-74
2023/06/28 07:28:54;;;;;;;;;;;;;;;25.59;40.83;100886.97;2200470;80;50252;-76
2023/06/28 07:31:56;;;;;;;;;;;;;;;25.61;40.68;100875.36;2222574;80;51671;-76
2023/06/28 07:34:57;;;;;;;;;;;;;;;25.64;40.58;100896.61;2200042;80;51515;-76
2023/06/28 07:37:59;;;;;;;;;;;;;;;25.63;40.53;100894.94;2222236;80;51454;-76
2023/06/28 07:41:01;;;;;;;;;;;;;;;25.63;40.55;100890.87;2224178;78;51142;-77
2023/06/28 07:44:02;;;;;;;;;;;;;;;25.64;40.47;100891.20;2255851;78;50276;-76
2023/06/28 07:47:04;;;;;;;;;;;;;;;25.67;40.33;100888.56;2256987;78;51630;-76
2023/06/28 07:50:06;;;;;;;;;;;;;;;25.63;40.33;100878.14;2234105;79;50687;-76
2023/06/28 07:53:08;;;;;;;;;;;;;;;25.60;40.27;100892.16;2210338;79;51671;-78
2023/06/28 07:56:10;;;;;;;;;;;;;;;25.59;40.27;100889.69;2257142;78;50404;-77
2023/06/28 07:59:11;;;;;;;;;;;;;;;25.55;40.26;100885.75;2233476;78;51450;-77
2023/06/28 08:02:13;;;;;;;;;;;;;;;25.52;40.26;100887.56;2233782;78;49768;-75
2023/06/28 08:05:15;;;;;;;;;;;;;;;25.48;40.38;100898.00;2209931;79;52512;-75
2023/06/28 08:08:16;;;;;;;;;;;;;;;25.45;40.37;100894.92;2234051;78;50664;-76
2023/06/28 08:11:18;;;;;;;;;;;;;;;25.43;40.36;100895.13;2257490;78;50683;-75
2023/06/28 08:14:19;;;;;;;;;;;;;;;25.40;40.39;100901.81;2253437;77;51419;-75
2023/06/28 08:17:21;;;;;;;;;;;;;;;25.40;40.47;100899.11;2213066;79;51578;-77
2023/06/28 08:20:23;;;;;;;;;;;;;;;25.38;40.51;100897.17;2235406;79;50698;-75
2023/06/28 08:23:24;;;;;;;;;;;;;;;25.39;40.44;100898.00;2234442;79;50669;-76
2023/06/28 08:26:26;;;;;;;;;;;;;;;25.37;40.46;100898.20;2234279;79;50105;-76
2023/06/28 08:29:27;;;;;;;;;;;;;;;25.38;40.46;100900.38;2234563;77;50768;-77
2023/06/28 08:32:29;;;;;;;;;;;;;;;25.41;40.42;100894.02;2237264;79;50778;-75
2023/06/28 08:35:31;;;;;;;;;;;;;;;25.43;40.28;100901.90;2234602;79;50724;-76
2023/06/28 08:38:32;;;;;;;;;;;;;;;25.44;40.21;100894.63;2234607;78;50758;-77
2023/06/28 08:41:35;;;;;;;;;;;;;;;25.42;40.21;100884.82;2210816;79;51221;-76
2023/06/28 08:44:38;;;;;;;;;;;;;;;25.42;40.16;100901.61;2278357;77;50747;-75
2023/06/28 08:47:41;;;;;;;;;;;;;;;25.40;40.21;100895.05;2260748;77;51606;-75
2023/06/28 08:50:43;;;;;;;;;;;;;;;25.37;40.26;100893.32;2257722;77;51613;-76
2023/06/28 08:53:45;;;;;;;;;;;;;;;25.38;40.14;100894.47;2257448;79;50344;-78
2023/06/28 08:56:47;;;;;;;;;;;;;;;25.39;40.15;100893.94;2257160;78;51594;-75
2023/06/28 08:59:49;;;;;;;;;;;;;;;25.38;40.09;100899.88;2286820;77;50688;-75
2023/06/28 09:02:51;;;;;;;;;;;;;;;25.37;40.08;100900.91;2250662;77;50815;-76
2023/06/28 09:05:52;;;;;;;;;;;;;;;25.34;40.16;100906.78;2274917;77;51238;-77
2023/06/28 09:08:54;;;;;;;;;;;;;;;25.35;40.09;100911.67;2307229;77;50675;-76
2023/06/28 09:11:55;;;;;;;;;;;;;;;25.34;40.14;100900.02;2308621;77;50503;-78
2023/06/28 09:14:57;;;;;;;;;;;;;;;25.34;40.24;100909.49;2277301;76;50276;-76
2023/06/28 09:17:59;;;;;;;;;;;;;;;25.33;40.22;100906.49;2223662;77;51219;-76
2023/06/28 09:21:01;;;;;;;;;;;;;;;25.33;40.24;100906.99;2308715;77;50307;-78
2023/06/28 09:24:02;;;;;;;;;;;;;;;25.33;40.31;100903.78;2308601;77;50845;-77
2023/06/28 09:27:04;;;;;;;;;;;;;;;25.33;40.29;100903.78;2263061;77;50296;-77
2023/06/28 09:30:07;;;;;;;;;;;;;;;25.34;40.35;100908.67;2211509;78;52581;-76
2023/06/28 09:33:10;;;;;;;;;;;;;;;25.30;40.32;100910.97;2235590;78;50928;-77
2023/06/28 09:36:11;;;;;;;;;;;;;;;25.29;40.39;100905.27;2259061;78;50356;-78
2023/06/28 09:39:13;;;;;;;;;;;;;;;25.29;40.35;100905.27;2259024;78;52630;-76
2023/06/28 09:42:15;;;;;;;;;;;;;;;25.30;40.37;100906.91;2254752;77;50110;-77
2023/06/28 09:45:26;;;;;;;;;;;;;;;25.28;40.47;100910.39;2291926;77;51531;-76
2023/06/28 09:48:28;;;;;;;;;;;;;;;25.26;40.58;100911.66;2233877;79;52077;-76
2023/06/28 09:51:29;;;;;;;;;;;;;;;25.24;40.67;100915.94;2257242;77;50390;-76
2023/06/28 09:54:31;;;;;;;;;;;;;;;25.23;40.73;100906.16;2210014;79;51201;-79
2023/06/28 09:57:33;;;;;;;;;;;;;;;25.25;40.72;100904.03;2257071;78;51561;-76
2023/06/28 10:00:34;;;;;;;;;;;;;;;25.24;40.83;100911.05;2257163;77;51600;-77
2023/06/28 10:03:40;;;;;;;;;;;;;;;25.22;40.86;100920.73;2257166;79;51464;-76
2023/06/28 10:06:39;;;;;;;;;;;;;;;25.21;40.91;100916.38;2256227;78;22291;-77
2023/06/28 10:09:41;;;;;;;;;;;;;;;25.23;40.87;100911.58;2257180;77;50251;-76
2023/06/28 10:12:43;;;;;;;;;;;;;;;25.24;40.88;100918.64;2257124;78;50359;-77
2023/06/28 10:15:46;;;;;;;;;;;;;;;25.22;40.89;100905.02;2256130;78;50359;-76
2023/06/28 10:18:47;;;;;;;;;;;;;;;25.24;40.88;100908.34;2232732;79;51484;-76
2023/06/28 10:21:49;;;;;;;;;;;;;;;25.22;40.97;100909.91;2257179;79;50263;-77
2023/06/28 10:24:51;;;;;;;;;;;;;;;25.22;40.98;100913.14;2257362;79;50026;-77
2023/06/28 10:27:52;;;;;;;;;;;;;;;25.23;40.96;100908.88;2257105;78;50673;-76
2023/06/28 10:30:54;;;;;;;;;;;;;;;25.23;40.95;100912.94;2257118;78;50362;-76
2023/06/28 10:33:57;;;;;;;;;;;;;;;25.22;40.97;100908.55;2257273;78;50782;-76
2023/06/28 10:36:59;;;;;;;;;;;;;;;25.20;40.98;100906.08;2256968;78;51650;-76
2023/06/28 10:40:00;;;;;;;;;;;;;;;25.20;41.02;100903.38;2234076;78;51519;-77
2023/06/28 10:43:02;;;;;;;;;;;;;;;25.24;40.96;100902.92;2249191;77;52443;-77
2023/06/28 10:46:04;;;;;;;;;;;;;;;25.22;41.01;100903.13;2256623;76;52318;-77
2023/06/28 10:49:05;;;;;;;;;;;;;;;25.20;41.06;100906.08;2231373;79;51500;-77
2023/06/28 10:52:14;;;;;;;;;;;;;;;25.21;41.08;100900.13;2254326;79;50756;-78
2023/06/28 10:55:22;;;;;;;;;;;;;;;25.23;41.05;100900.75;2254250;77;50918;-77
2023/06/28 10:58:25;;;;;;;;;;;;;;;25.21;41.13;100901.48;2230918;79;51583;-77
2023/06/28 11:01:36;;;;;;;;;;;;;;;25.19;41.16;100904.41;2254107;79;51606;-77
2023/06/28 11:04:51;;;;;;;;;;;;;;;25.18;41.18;100900.58;2254203;77;51426;-77
2023/06/28 11:07:53;;;;;;;;;;;;;;;25.18;41.22;100902.76;2207549;78;50326;-77
2023/06/28 11:10:55;;;;;;;;;;;;;;;25.18;41.24;100913.59;2231329;79;51475;-76
2023/06/28 11:13:57;;;;;;;;;;;;;;;25.17;41.27;100909.73;2233938;79;51461;-76
2023/06/28 11:17:05;;;;;;;;;;;;;;;25.18;41.28;100912.77;2253814;77;51562;-75
2023/06/28 11:20:07;;;;;;;;;;;;;;;25.18;41.31;100908.70;2253707;77;22924;-76
2023/06/28 11:23:09;;;;;;;;;;;;;;;25.17;41.36;100919.22;2254195;78;51514;-77
2023/06/28 11:26:12;;;;;;;;;;;;;;;25.16;41.33;100923.80;2254066;78;50364;-76
2023/06/28 11:29:18;;;;;;;;;;;;;;;25.17;41.34;100922.75;2254178;77;51641;-77
2023/06/28 11:32:24;;;;;;;;;;;;;;;25.18;41.32;100914.95;2253985;77;51651;-76
2023/06/28 11:35:25;;;;;;;;;;;;;;;25.17;41.35;100908.38;2231004;78;50343;-77
2023/06/28 11:38:27;;;;;;;;;;;;;;;25.17;41.35;100930.05;2253977;78;50245;-77
2023/06/28 11:41:28;;;;;;;;;;;;;;;25.17;41.40;100913.80;2252749;78;50720;-77
2023/06/28 11:44:30;;;;;;;;;;;;;;;25.16;41.43;100915.69;2253013;78;50139;-77
2023/06/28 11:47:32;;;;;;;;;;;;;;;25.17;41.41;100917.86;2230620;79;50729;-77
2023/06/28 11:50:33;;;;;;;;;;;;;;;25.16;41.44;100914.86;2254133;78;50317;-77
2023/06/28 11:53:35;;;;;;;;;;;;;;;25.16;41.48;100917.03;2231113;79;51707;-77
2023/06/28 11:56:44;;;;;;;;;;;;;;;25.17;41.42;100909.73;2207148;78;49578;-77
2023/06/28 11:59:52;;;;;;;;;;;;;;;25.18;41.44;100916.83;2254568;77;50432;-78
2023/06/28 12:02:53;;;;;;;;;;;;;;;25.17;41.49;100915.15;2254111;77;52527;-77
2023/06/28 12:05:55;;;;;;;;;;;;;;;25.19;41.48;100915.77;2231466;79;51546;-77
2023/06/28 12:08:56;;;;;;;;;;;;;;;25.18;41.50;100912.23;2231214;79;51561;-76
2023/06/28 12:11:59;;;;;;;;;;;;;;;25.18;41.51;100919.53;2252666;78;52247;-76
2023/06/28 12:15:00;;;;;;;;;;;;;;;25.17;41.51;100913.27;2288532;75;50731;-76
2023/06/28 12:18:02;;;;;;;;;;;;;;;25.17;41.53;100905.67;2314997;75;51485;-76
2023/06/28 12:21:24;;;;;;;;;;;;;;;25.19;41.52;100902.23;2267614;75;51689;-76
2023/06/28 12:24:26;;;;;;;;;;;;;;;25.17;41.55;100906.50;2314654;76;51484;-76
2023/06/28 12:27:27;;;;;;;;;;;;;;;25.19;41.59;100914.41;2293062;75;51537;-76
2023/06/28 12:30:29;;;;;;;;;;;;;;;25.17;41.58;100911.09;2292915;77;51573;-76
2023/06/28 12:33:33;;;;;;;;;;;;;;;25.18;41.64;100907.34;2267713;77;51713;-76
2023/06/28 12:36:34;;;;;;;;;;;;;;;25.17;41.64;100901.61;2314810;75;50336;-77
2023/06/28 12:39:37;;;;;;;;;;;;;;;25.18;41.64;100910.06;2315183;75;51539;-76
2023/06/28 12:42:38;;;;;;;;;;;;;;;25.19;41.71;100914.41;2263001;78;50377;-77
2023/06/28 12:45:43;;;;;;;;;;;;;;;25.19;41.71;100917.95;2233109;79;52471;-77
2023/06/28 12:48:45;;;;;;;;;;;;;;;25.16;41.77;100907.56;2256885;77;50359;-77
2023/06/28 12:51:47;;;;;;;;;;;;;;;25.14;41.81;100915.03;2257153;79;50726;-77
2023/06/28 12:54:49;;;;;;;;;;;;;;;25.15;41.82;100919.92;2257007;78;51494;-77
2023/06/28 12:57:50;;;;;;;;;;;;;;;25.16;41.84;100901.31;2209812;79;51707;-77
2023/06/28 13:00:52;;;;;;;;;;;;;;;25.15;41.89;100910.44;2234056;78;50474;-77
2023/06/28 13:03:54;;;;;;;;;;;;;;;25.15;41.88;100908.59;2233993;79;51591;-77
2023/06/28 13:06:56;;;;;;;;;;;;;;;25.16;41.89;100918.39;2233819;79;50308;-76
2023/06/28 13:09:58;;;;;;;;;;;;;;;25.15;41.93;100910.44;2210806;78;51193;-77
2023/06/28 13:12:59;;;;;;;;;;;;;;;25.16;41.91;100912.16;2233524;78;50652;-77
2023/06/28 13:16:01;;;;;;;;;;;;;;;25.17;41.94;100908.38;2256573;79;51494;-77
2023/06/28 13:19:02;;;;;;;;;;;;;;;25.16;41.96;100905.38;2256984;77;51590;-77
2023/06/28 13:22:05;;;;;;;;;;;;;;;25.17;41.95;100908.38;2234752;78;51718;-76
2023/06/28 13:25:07;;;;;;;;;;;;;;;25.17;41.96;100912.44;2236176;78;50790;-78
2023/06/28 13:28:09;;;;;;;;;;;;;;;25.17;41.98;100909.73;2234680;79;50719;-77
2023/06/28 13:31:10;;;;;;;;;;;;;;;25.16;42.02;100908.91;2257034;79;50666;-76
2023/06/28 13:34:13;;;;;;;;;;;;;;;25.15;42.05;100909.94;2208077;79;51268;-77
2023/06/28 13:37:15;;;;;;;;;;;;;;;25.16;42.07;100906.73;2254106;79;51573;-77
2023/06/28 13:40:18;;;;;;;;;;;;;;;25.19;42.03;100916.59;2254158;79;50310;-77
2023/06/28 13:43:19;;;;;;;;;;;;;;;25.15;42.16;100910.44;2254276;79;50413;-77
2023/06/28 13:46:21;;;;;;;;;;;;;;;25.18;42.10;100911.41;2206984;79;51740;-77
2023/06/28 13:49:22;;;;;;;;;;;;;;;25.20;42.04;100907.94;2254617;77;51459;-77
2023/06/28 13:52:24;;;;;;;;;;;;;;;25.17;42.14;100907.84;2233664;77;50721;-77
2023/06/28 13:55:26;;;;;;;;;;;;;;;25.17;42.13;100913.27;2293458;75;51505;-77
2023/06/28 13:58:28;;;;;;;;;;;;;;;25.18;42.14;100913.59;2233323;78;52272;-77
2023/06/28 14:01:29;;;;;;;;;;;;;;;25.16;42.26;100906.73;2217620;79;50409;-77
2023/06/28 14:04:31;;;;;;;;;;;;;;;25.17;42.24;100906.50;2217711;79;50747;-77
2023/06/28 14:07:32;;;;;;;;;;;;;;;25.19;42.20;100906.29;2219178;79;51564;-77
2023/06/28 14:10:34;;;;;;;;;;;;;;;25.19;42.24;100913.06;2210229;79;50673;-77
2023/06/28 14:13:36;;;;;;;;;;;;;;;25.19;42.25;100902.23;2264000;77;50455;-77
2023/06/28 14:16:37;;;;;;;;;;;;;;;25.17;42.31;100907.03;2258361;78;50430;-76
2023/06/28 14:19:39;;;;;;;;;;;;;;;25.19;42.32;100903.05;2231948;79;50648;-76
2023/06/28 14:22:42;;;;;;;;;;;;;;;25.16;42.36;100903.50;2231134;79;51657;-76
2023/06/28 14:25:44;;;;;;;;;;;;;;;25.15;42.42;100900.97;2231401;79;50368;-76
2023/06/28 14:28:46;;;;;;;;;;;;;;;25.14;42.42;100897.97;2253997;79;50734;-77
2023/06/28 14:31:48;;;;;;;;;;;;;;;25.17;42.40;100898.91;2248716;77;50690;-77
2023/06/28 14:34:49;;;;;;;;;;;;;;;25.16;42.45;100888.60;2275069;76;51225;-77
2023/06/28 14:37:51;;;;;;;;;;;;;;;25.16;42.46;100899.44;2308419;77;50695;-78
2023/06/28 14:40:52;;;;;;;;;;;;;;;25.16;42.50;100894.02;2308164;76;51462;-77
2023/06/28 14:43:54;;;;;;;;;;;;;;;25.15;42.55;100897.76;2242002;77;50740;-76
2023/06/28 14:46:56;;;;;;;;;;;;;;;25.14;42.56;100895.26;2315102;77;50324;-76
2023/06/28 14:49:57;;;;;;;;;;;;;;;25.16;42.55;100895.38;2293366;77;50426;-79
2023/06/28 14:52:59;;;;;;;;;;;;;;;25.20;42.66;100894.39;2292263;77;50668;-78
2023/06/28 14:56:01;;;;;;;;;;;;;;;25.19;42.77;100891.39;2292284;76;51519;-77
2023/06/28 14:59:02;;;;;;;;;;;;;;;25.19;42.87;100895.45;2257354;79;51609;-77
2023/06/28 15:02:04;;;;;;;;;;;;;;;25.20;42.97;100894.39;2257410;77;51491;-78
2023/06/28 15:05:05;;;;;;;;;;;;;;;25.18;43.01;100890.57;2234404;79;51550;-78
2023/06/28 15:08:07;;;;;;;;;;;;;;;25.19;43.12;100895.45;2283168;77;50102;-77
2023/06/28 15:11:10;;;;;;;;;;;;;;;25.18;43.19;100899.23;2267553;77;50842;-77
2023/06/28 15:14:12;;;;;;;;;;;;;;;25.14;43.25;100901.50;2256404;78;50451;-77
2023/06/28 15:17:13;;;;;;;;;;;;;;;25.17;43.21;100903.79;2286370;77;50311;-77
2023/06/28 15:20:15;;;;;;;;;;;;;;;25.17;43.28;100905.67;2283789;77;51495;-78
2023/06/28 15:23:17;;;;;;;;;;;;;;;25.17;43.29;100902.97;2257349;78;51560;-77
2023/06/28 15:26:18;;;;;;;;;;;;;;;25.15;43.34;100896.41;2303570;77;51437;-77
2023/06/28 15:29:20;;;;;;;;;;;;;;;25.18;43.31;100901.94;2275373;77;50683;-77
2023/06/28 15:32:22;;;;;;;;;;;;;;;25.16;43.33;100904.85;2233517;79;50379;-78